Time;durP1;ratioP1;P1;durP2;ratioP2;P2;SDS_P1;SDS_P2;PMS_P1;PMS_P2;Temp;Humidity;BMP_temperature;BMP_pressure;BME280_temperature;BME280_humidity;BME280_pressure;Samples;Min_cycle;Max_cycle;Signal;HPM_P1;HPM_P2
2023/10/14 00:01:46;;;;;;;4.15;0.60;;;14.00;99.90;;;;;;5048682;28;20033;-71
2023/10/14 00:04:11;;;;;;;2.30;0.20;;;13.90;99.90;;;;;;5049084;28;20037;-70
2023/10/14 00:06:41;;;;;;;3.90;0.80;;;13.80;99.90;;;;;;5030707;28;20056;-70
2023/10/14 00:09:13;;;;;;;5.97;0.38;;;13.80;99.90;;;;;;5030868;28;20069;-71
2023/10/14 00:11:54;;;;;;;2.40;0.28;;;13.80;99.90;;;;;;5047983;28;20497;-70
2023/10/14 00:14:22;;;;;;;0.73;0.20;;;13.70;99.90;;;;;;5047921;28;20056;-71
2023/10/14 00:16:51;;;;;;;4.88;0.68;;;13.70;99.90;;;;;;5029976;28;20032;-70
2023/10/14 00:19:21;;;;;;;4.78;0.52;;;13.70;99.90;;;;;;5048279;28;20033;-70
2023/10/14 00:21:50;;;;;;;16.35;1.10;;;13.70;99.90;;;;;;5047261;28;20080;-71
2023/10/14 00:24:27;;;;;;;5.63;0.55;;;13.70;99.90;;;;;;5048458;28;20138;-71
2023/10/14 00:26:57;;;;;;;5.95;0.65;;;13.70;99.90;;;;;;5048244;28;20033;-71
2023/10/14 00:29:23;;;;;;;4.13;0.52;;;13.70;99.90;;;;;;5030858;28;20040;-71
2023/10/14 00:31:52;;;;;;;4.18;0.30;;;13.60;99.90;;;;;;5030000;28;20021;-70
2023/10/14 00:34:22;;;;;;;1.83;0.50;;;13.60;99.90;;;;;;5029245;28;20126;-70
2023/10/14 00:36:49;;;;;;;11.15;0.50;;;13.60;99.90;;;;;;5030364;28;20405;-70
2023/10/14 00:39:22;;;;;;;2.88;0.75;;;13.60;99.90;;;;;;5030179;28;20120;-72
2023/10/14 00:41:52;;;;;;;4.88;0.55;;;13.50;99.90;;;;;;5047373;28;20489;-71
2023/10/14 00:44:18;;;;;;;3.58;1.17;;;13.60;99.90;;;;;;5029622;28;20037;-72
2023/10/14 00:46:50;;;;;;;4.53;0.70;;;13.50;99.90;;;;;;5047668;28;20037;-71
2023/10/14 00:49:34;;;;;;;4.13;0.25;;;13.60;99.90;;;;;;5048068;28;20373;-71
2023/10/14 00:52:09;;;;;;;3.35;0.55;;;13.60;99.90;;;;;;5026017;28;20040;-71
2023/10/14 00:59:48;;;;;;;6.43;0.57;;;13.50;99.90;;;;;;5048018;28;20055;-70
2023/10/14 01:02:14;;;;;;;6.00;0.68;;;13.50;99.90;;;;;;5047735;28;20775;-71
2023/10/14 01:04:42;;;;;;;6.72;1.25;;;13.50;99.90;;;;;;5030249;28;20041;-70
2023/10/14 01:07:14;;;;;;;7.72;1.80;;;13.50;99.90;;;;;;5030902;28;20051;-70
2023/10/14 01:12:16;;;;;;;4.05;1.17;;;13.50;99.90;;;;;;5047975;28;20109;-71
2023/10/14 01:14:52;;;;;;;7.70;0.85;;;13.50;99.90;;;;;;5029223;28;20115;-71
2023/10/14 01:17:29;;;;;;;4.28;1.00;;;13.50;99.90;;;;;;5047495;28;20040;-71
2023/10/14 01:20:16;;;;;;;9.45;0.75;;;13.40;99.90;;;;;;5029587;28;20045;-71
2023/10/14 01:22:47;;;;;;;8.68;1.23;;;13.40;99.90;;;;;;5027180;28;20042;-70
2023/10/14 01:25:15;;;;;;;6.32;0.47;;;13.30;99.90;;;;;;5047142;28;20044;-71
2023/10/14 01:27:43;;;;;;;4.00;0.40;;;13.30;99.90;;;;;;5045953;28;20057;-71
2023/10/14 01:30:19;;;;;;;8.10;1.58;;;13.20;99.90;;;;;;5029137;28;20515;-71
2023/10/14 01:37:51;;;;;;;4.38;1.23;;;12.90;99.90;;;;;;5046640;28;20040;-71
2023/10/14 01:42:56;;;;;;;9.35;1.48;;;12.70;99.90;;;;;;5046375;28;20493;-71
2023/10/14 01:46:11;;;;;;;5.68;1.05;;;12.60;99.90;;;;;;5028982;28;20146;-71
2023/10/14 01:48:12;;;;;;;4.13;1.15;;;12.50;99.90;;;;;;5025893;28;20511;-72
2023/10/14 01:50:46;;;;;;;7.63;0.95;;;12.50;99.90;;;;;;5029019;28;20115;-71
2023/10/14 01:53:21;;;;;;;10.90;1.80;;;12.40;99.90;;;;;;5047132;28;20484;-71
2023/10/14 01:55:47;;;;;;;4.57;0.60;;;12.40;99.90;;;;;;5046812;28;20056;-71
2023/10/14 01:58:22;;;;;;;11.35;0.80;;;12.30;99.90;;;;;;5046888;28;20116;-71
2023/10/14 02:00:53;;;;;;;8.63;1.15;;;12.30;99.90;;;;;;5028161;28;20037;-71
2023/10/14 02:03:21;;;;;;;8.63;1.50;;;12.20;99.90;;;;;;5028335;28;20033;-71
2023/10/14 02:05:51;;;;;;;12.88;2.28;;;12.20;99.90;;;;;;5028187;28;20040;-72
2023/10/14 02:08:21;;;;;;;5.03;1.25;;;12.00;99.90;;;;;;5027881;28;20029;-71
2023/10/14 02:10:49;;;;;;;6.95;1.52;;;12.00;99.90;;;;;;5028271;28;20489;-71
2023/10/14 02:13:15;;;;;;;5.13;0.90;;;11.90;99.90;;;;;;5028049;28;20063;-70
2023/10/14 02:15:50;;;;;;;6.07;0.57;;;11.80;99.90;;;;;;5045932;28;20080;-70
2023/10/14 02:18:22;;;;;;;2.50;0.90;;;11.80;99.90;;;;;;5028132;28;20037;-71
2023/10/14 02:21:05;;;;;;;6.72;0.68;;;11.80;99.90;;;;;;5027766;28;20449;-71
2023/10/14 02:23:43;;;;;;;6.43;0.60;;;11.70;99.90;;;;;;5042752;28;20404;-71
2023/10/14 02:26:15;;;;;;;3.08;0.45;;;11.70;99.90;;;;;;5027558;28;20455;-70
2023/10/14 02:28:47;;;;;;;8.07;0.80;;;11.70;99.90;;;;;;5045928;28;20120;-71
2023/10/14 02:31:17;;;;;;;5.55;1.20;;;11.60;99.90;;;;;;5045694;28;20512;-71
2023/10/14 02:33:46;;;;;;;7.20;1.20;;;11.60;99.90;;;;;;5045671;28;20041;-71
2023/10/14 02:36:16;;;;;;;3.15;0.73;;;11.60;99.90;;;;;;5027419;28;20100;-72
2023/10/14 02:38:53;;;;;;;7.45;1.52;;;11.50;99.90;;;;;;5045476;28;20497;-71
2023/10/14 02:41:19;;;;;;;4.70;1.25;;;11.50;99.90;;;;;;5027835;28;20028;-71
2023/10/14 02:43:49;;;;;;;4.10;0.95;;;11.50;99.90;;;;;;5028168;28;20028;-70
2023/10/14 02:46:25;;;;;;;3.37;0.60;;;11.50;99.90;;;;;;5045989;28;20029;-71
2023/10/14 02:48:54;;;;;;;8.48;0.90;;;11.40;99.90;;;;;;5027116;28;20679;-70
2023/10/14 02:51:29;;;;;;;9.45;1.20;;;11.40;99.90;;;;;;5027697;28;20025;-71
2023/10/14 02:53:56;;;;;;;8.18;0.80;;;11.40;99.90;;;;;;5042005;28;20055;-72
2023/10/14 02:56:32;;;;;;;4.22;0.68;;;11.40;99.90;;;;;;5024138;28;20029;-74
2023/10/14 02:58:58;;;;;;;11.32;1.23;;;11.40;99.90;;;;;;5023562;28;20029;-72
2023/10/14 03:01:31;;;;;;;16.77;1.10;;;11.40;99.90;;;;;;5027949;28;20071;-72
2023/10/14 03:04:08;;;;;;;11.00;0.93;;;11.30;99.90;;;;;;5026747;28;20029;-72
2023/10/14 03:06:46;;;;;;;12.55;1.20;;;11.30;99.90;;;;;;5027785;28;20048;-71
2023/10/14 03:09:17;;;;;;;2.72;0.63;;;11.30;99.90;;;;;;5026622;28;20045;-72
2023/10/14 03:11:49;;;;;;;8.60;1.20;;;11.30;99.90;;;;;;5027949;28;20025;-70
2023/10/14 03:14:17;;;;;;;6.97;1.08;;;11.30;99.90;;;;;;5028863;28;20033;-70
2023/10/14 03:16:44;;;;;;;6.38;0.73;;;11.30;99.90;;;;;;5026201;28;20094;-71
2023/10/14 03:19:10;;;;;;;12.38;1.35;;;11.30;99.90;;;;;;5046604;28;20124;-72
2023/10/14 03:21:40;;;;;;;11.93;1.92;;;11.30;99.90;;;;;;5045567;28;20493;-74
2023/10/14 03:24:06;;;;;;;13.02;1.08;;;11.20;99.90;;;;;;5045752;28;20037;-72
2023/10/14 03:26:32;;;;;;;9.05;2.22;;;11.30;99.90;;;;;;5027621;28;20047;-72
2023/10/14 03:29:04;;;;;;;5.18;0.60;;;11.20;99.90;;;;;;5031659;28;20374;-71
2023/10/14 03:31:35;;;;;;;8.93;0.88;;;11.20;99.90;;;;;;5046479;28;20033;-71
2023/10/14 03:34:06;;;;;;;10.88;1.05;;;11.20;99.90;;;;;;5027709;28;20169;-71
2023/10/14 03:36:33;;;;;;;7.43;1.48;;;11.20;99.90;;;;;;5028042;28;20029;-72
2023/10/14 03:38:59;;;;;;;5.65;0.93;;;11.20;99.90;;;;;;5026569;28;20036;-71
2023/10/14 03:42:02;;;;;;;6.32;1.20;;;11.20;99.90;;;;;;5027893;28;20420;-71
2023/10/14 03:44:21;;;;;;;3.90;0.60;;;11.20;99.90;;;;;;5039041;28;20037;-71
2023/10/14 03:46:47;;;;;;;4.57;0.53;;;11.20;99.90;;;;;;5045062;28;20021;-73
2023/10/14 03:49:22;;;;;;;6.28;0.43;;;11.10;99.90;;;;;;5045060;28;20413;-72
2023/10/14 03:51:54;;;;;;;4.28;0.47;;;11.10;99.90;;;;;;5042781;28;20033;-71
2023/10/14 03:54:23;;;;;;;3.67;1.20;;;11.10;99.90;;;;;;5027236;28;20066;-71
2023/10/14 03:56:50;;;;;;;5.28;1.25;;;11.00;99.90;;;;;;5049184;28;20159;-73
2023/10/14 03:59:21;;;;;;;12.70;1.63;;;11.00;99.90;;;;;;5030964;28;20134;-71
2023/10/14 04:01:47;;;;;;;3.30;0.70;;;10.90;99.90;;;;;;5048530;28;20491;-71
2023/10/14 04:04:18;;;;;;;6.75;0.98;;;10.90;99.90;;;;;;5048579;28;20033;-72
2023/10/14 04:09:56;;;;;;;9.52;1.25;;;10.90;99.90;;;;;;5046164;28;20436;-71
2023/10/14 04:12:36;;;;;;;14.32;2.53;;;10.90;99.90;;;;;;5027200;28;20750;-72
2023/10/14 04:15:24;;;;;;;10.43;1.55;;;10.90;99.90;;;;;;5048271;28;20094;-72
2023/10/14 04:17:55;;;;;;;2.17;0.20;;;10.90;99.90;;;;;;5027114;28;20493;-71
2023/10/14 04:20:22;;;;;;;;;;;10.90;99.90;;;;;;5045667;28;20124;-71
2023/10/14 04:22:51;;;;;;;5.28;1.13;;;10.80;99.90;;;;;;5026995;28;19916;-71
2023/10/14 04:25:21;;;;;;;5.25;0.85;;;10.80;99.90;;;;;;5049749;28;20911;-72
2023/10/14 04:30:31;;;;;;;6.53;0.90;;;10.80;99.90;;;;;;5044458;28;20081;-71
2023/10/14 04:35:26;;;;;;;15.13;1.17;;;10.80;99.90;;;;;;5048901;28;20037;-71
2023/10/14 04:37:53;;;;;;;12.23;1.35;;;10.70;99.90;;;;;;5030136;28;20728;-71
2023/10/14 04:44:00;;;;;;;4.45;0.90;;;10.70;99.90;;;;;;5045599;28;20037;-73
2023/10/14 04:46:05;;;;;;;10.60;1.48;;;10.70;99.90;;;;;;5036808;28;20557;-71
2023/10/14 04:51:09;;;;;;;10.10;1.48;;;10.70;99.90;;;;;;5047953;28;20037;-71
2023/10/14 04:53:36;;;;;;;7.05;0.95;;;10.60;99.90;;;;;;5030698;28;20125;-73
2023/10/14 04:56:08;;;;;;;5.28;0.65;;;10.60;99.90;;;;;;5029760;28;20033;-73
2023/10/14 04:58:34;;;;;;;5.63;0.88;;;10.60;99.90;;;;;;5048745;28;20083;-72
2023/10/14 05:01:00;;;;;;;10.43;1.10;;;10.60;99.90;;;;;;5029647;28;20033;-71
2023/10/14 05:03:30;;;;;;;8.90;0.88;;;10.60;99.90;;;;;;5029040;28;20166;-71
2023/10/14 05:05:56;;;;;;;7.07;0.93;;;10.60;99.90;;;;;;5030198;28;20097;-71
2023/10/14 05:08:24;;;;;;;12.23;1.65;;;10.60;99.90;;;;;;5030269;28;20552;-72
2023/10/14 05:10:54;;;;;;;8.27;1.13;;;10.60;99.90;;;;;;5048367;28;20067;-71
2023/10/14 05:13:33;;;;;;;10.68;1.00;;;10.70;99.90;;;;;;5030531;28;20091;-71
2023/10/14 05:16:15;;;;;;;11.30;2.30;;;10.70;99.90;;;;;;5030167;28;20124;-72
2023/10/14 05:18:43;;;;;;;11.45;1.30;;;10.70;99.90;;;;;;5047318;28;20118;-71
2023/10/14 05:21:20;;;;;;;6.85;1.10;;;10.60;99.90;;;;;;5047270;28;20087;-71
2023/10/14 05:23:46;;;;;;;9.50;1.08;;;10.60;99.90;;;;;;5025789;28;20037;-71
2023/10/14 05:26:14;;;;;;;12.95;1.17;;;10.60;99.90;;;;;;5029412;28;20065;-71
2023/10/14 05:28:42;;;;;;;11.93;0.82;;;10.60;99.90;;;;;;5029481;28;20060;-72
2023/10/14 05:31:08;;;;;;;10.90;1.40;;;10.50;99.90;;;;;;5028906;28;20032;-71
2023/10/14 05:33:37;;;;;;;5.05;0.85;;;10.50;99.90;;;;;;5047333;28;20025;-72
2023/10/14 05:36:05;;;;;;;11.25;1.45;;;10.50;99.90;;;;;;5046668;28;20044;-72
2023/10/14 05:38:30;;;;;;;2.88;0.70;;;10.40;99.90;;;;;;5029880;28;20174;-71
2023/10/14 05:40:58;;;;;;;4.80;0.70;;;10.40;99.90;;;;;;5047585;28;20124;-72
2023/10/14 05:43:25;;;;;;;7.35;0.90;;;10.30;99.90;;;;;;5029262;28;20509;-73
2023/10/14 05:45:54;;;;;;;9.35;1.90;;;10.30;99.90;;;;;;5047165;28;20033;-71
2023/10/14 05:48:27;;;;;;;8.23;0.80;;;10.30;99.90;;;;;;5047264;28;20029;-71
2023/10/14 05:50:56;;;;;;;9.18;1.25;;;10.30;99.90;;;;;;5028820;28;20033;-71
2023/10/14 05:53:25;;;;;;;5.40;1.10;;;10.20;99.90;;;;;;5047758;28;20693;-73
2023/10/14 05:56:09;;;;;;;9.88;1.25;;;10.20;99.90;;;;;;5047214;28;20063;-71
2023/10/14 05:58:37;;;;;;;10.15;0.90;;;10.10;99.90;;;;;;5029529;28;20033;-72
2023/10/14 06:01:13;;;;;;;5.65;0.80;;;10.10;99.90;;;;;;5028923;28;20036;-72
2023/10/14 06:03:43;;;;;;;10.80;1.23;;;10.10;99.90;;;;;;5048068;28;20048;-71
2023/10/14 06:06:16;;;;;;;9.27;1.55;;;10.10;99.90;;;;;;5048551;28;20532;-72
2023/10/14 06:08:46;;;;;;;6.22;1.15;;;10.10;99.90;;;;;;5042754;28;20378;-71
2023/10/14 06:11:12;;;;;;;10.02;0.95;;;10.10;99.90;;;;;;5045542;28;20043;-72
2023/10/14 06:13:39;;;;;;;9.85;0.98;;;10.10;99.90;;;;;;5027486;28;20136;-72
2023/10/14 06:16:09;;;;;;;4.88;0.50;;;10.10;99.90;;;;;;5027994;28;20049;-71
2023/10/14 06:18:36;;;;;;;12.98;1.60;;;10.10;99.90;;;;;;5028154;28;20040;-70
2023/10/14 06:21:02;;;;;;;6.68;0.70;;;10.10;99.90;;;;;;5028724;28;20059;-73
2023/10/14 06:23:27;;;;;;;11.77;1.27;;;10.10;99.90;;;;;;5029155;28;20856;-71
2023/10/14 06:25:56;;;;;;;14.30;1.50;;;10.00;99.90;;;;;;5046360;28;20120;-71
2023/10/14 06:28:22;;;;;;;9.43;1.58;;;10.00;99.90;;;;;;5029045;28;20047;-72
2023/10/14 06:30:48;;;;;;;7.65;1.33;;;10.00;99.90;;;;;;5046634;28;20037;-71
2023/10/14 06:33:13;;;;;;;3.78;0.65;;;10.00;99.90;;;;;;5046531;28;20064;-71
2023/10/14 06:35:48;;;;;;;13.88;1.48;;;10.00;99.90;;;;;;5036102;28;20068;-72
2023/10/14 06:38:17;;;;;;;11.05;1.85;;;10.00;99.90;;;;;;5027489;28;20033;-71
2023/10/14 06:40:44;;;;;;;6.15;0.98;;;10.10;99.90;;;;;;5027287;28;20140;-72
2023/10/14 06:43:10;;;;;;;7.32;0.88;;;10.10;99.90;;;;;;5017980;28;20056;-72
2023/10/14 06:45:37;;;;;;;6.88;1.00;;;10.00;99.90;;;;;;5046370;28;20120;-71
2023/10/14 06:48:05;;;;;;;10.18;1.23;;;10.10;99.90;;;;;;5040451;28;20524;-72
2023/10/14 06:50:32;;;;;;;16.52;1.25;;;10.10;99.90;;;;;;5028657;28;20086;-71
2023/10/14 06:53:01;;;;;;;7.53;1.52;;;10.10;99.90;;;;;;5025409;28;20079;-71
2023/10/14 06:55:42;;;;;;;10.82;1.52;;;10.10;99.90;;;;;;5023868;28;20060;-72
2023/10/14 06:58:11;;;;;;;5.40;1.55;;;10.10;99.90;;;;;;5020939;28;20029;-73
2023/10/14 07:00:37;;;;;;;7.50;0.75;;;10.10;99.90;;;;;;5025761;28;20045;-74
2023/10/14 07:03:07;;;;;;;12.90;0.98;;;10.20;99.90;;;;;;5044208;28;20037;-71
2023/10/14 07:05:56;;;;;;;8.40;1.00;;;10.20;99.90;;;;;;5046014;28;20041;-71
2023/10/14 07:08:23;;;;;;;7.50;1.17;;;10.20;99.90;;;;;;5025461;28;20044;-70
2023/10/14 07:10:54;;;;;;;9.32;1.00;;;10.30;99.90;;;;;;5027354;28;20127;-71
2023/10/14 07:13:23;;;;;;;6.95;0.98;;;10.30;99.90;;;;;;5045327;28;20128;-71
2023/10/14 07:15:50;;;;;;;4.63;1.20;;;10.30;99.90;;;;;;5023202;28;20045;-71
2023/10/14 07:18:23;;;;;;;5.88;1.00;;;10.40;99.90;;;;;;5021328;28;20029;-71
2023/10/14 07:21:12;;;;;;;5.55;1.35;;;10.50;99.90;;;;;;5046008;28;20581;-71
2023/10/14 07:23:38;;;;;;;6.53;1.20;;;10.60;99.90;;;;;;5022919;28;20959;-71
2023/10/14 07:26:12;;;;;;;12.68;1.50;;;10.80;99.90;;;;;;5027050;28;20773;-73
2023/10/14 07:28:42;;;;;;;11.77;2.10;;;10.90;99.90;;;;;;5022768;28;20033;-72
2023/10/14 07:31:10;;;;;;;12.85;1.92;;;11.00;99.90;;;;;;5026896;28;20039;-72
2023/10/14 07:33:37;;;;;;;6.35;1.27;;;11.10;99.90;;;;;;5044749;28;20037;-72
2023/10/14 07:36:06;;;;;;;12.90;2.50;;;11.20;99.90;;;;;;5029128;28;20044;-72
2023/10/14 07:38:34;;;;;;;9.27;1.95;;;11.20;99.90;;;;;;5027890;28;20025;-72
2023/10/14 07:41:01;;;;;;;7.53;1.45;;;11.30;99.90;;;;;;5045912;28;20053;-72
2023/10/14 07:43:27;;;;;;;13.18;1.65;;;11.30;99.90;;;;;;5030883;28;20039;-71
2023/10/14 07:45:53;;;;;;;8.07;1.65;;;11.40;99.90;;;;;;5031609;28;20040;-71
2023/10/14 07:48:19;;;;;;;10.80;1.30;;;11.40;99.90;;;;;;5049027;28;20147;-71
2023/10/14 07:50:47;;;;;;;10.48;2.33;;;11.40;99.90;;;;;;5030012;28;20037;-70
2023/10/14 07:53:15;;;;;;;11.02;1.58;;;11.50;99.90;;;;;;5047035;28;20036;-72
2023/10/14 07:55:42;;;;;;;9.35;1.20;;;11.60;99.90;;;;;;5029931;28;20041;-70
2023/10/14 07:58:08;;;;;;;11.10;2.15;;;11.70;99.90;;;;;;5029584;28;20574;-72
2023/10/14 08:00:39;;;;;;;7.28;1.25;;;11.80;99.90;;;;;;5030271;28;20495;-72
2023/10/14 08:03:09;;;;;;;;;;;11.80;99.90;;;;;;5047994;28;20040;-70
2023/10/14 08:05:38;;;;;;;10.82;1.23;;;11.90;99.90;;;;;;5026524;28;19913;-72
2023/10/14 08:08:07;;;;;;;6.68;1.05;;;12.00;99.90;;;;;;5025547;28;20087;-71
2023/10/14 08:10:33;;;;;;;6.28;1.52;;;12.00;99.90;;;;;;5048551;28;20047;-71
2023/10/14 08:13:04;;;;;;;5.22;0.80;;;12.10;99.90;;;;;;5024888;28;20032;-73
2023/10/14 08:15:30;;;;;;;10.90;1.15;;;12.20;99.90;;;;;;5030231;28;20067;-71
2023/10/14 08:18:00;;;;;;;6.57;1.05;;;12.30;99.90;;;;;;5028913;28;20041;-71
2023/10/14 08:20:31;;;;;;;8.20;1.75;;;12.30;99.90;;;;;;5030468;28;20115;-71
2023/10/14 08:22:57;;;;;;;;;;;12.50;99.90;;;;;;5029636;28;20182;-72
2023/10/14 08:25:25;;;;;;;4.53;0.80;;;12.60;99.90;;;;;;5047719;28;20361;-71
2023/10/14 08:27:55;;;;;;;5.55;1.20;;;12.70;99.90;;;;;;5029987;28;20144;-71
2023/10/14 08:30:24;;;;;;;7.07;1.27;;;12.90;99.90;;;;;;5025318;28;20037;-71
2023/10/14 08:32:52;;;;;;;7.05;0.80;;;13.00;99.90;;;;;;5029944;28;20497;-72
2023/10/14 08:35:19;;;;;;;8.82;1.05;;;13.10;99.90;;;;;;5032734;28;20041;-71
2023/10/14 08:37:50;;;;;;;6.78;1.17;;;13.00;99.90;;;;;;5047791;28;20040;-71
2023/10/14 08:40:21;;;;;;;4.20;1.00;;;12.90;99.90;;;;;;5029675;28;20128;-72
2023/10/14 08:42:49;;;;;;;6.32;0.60;;;12.80;99.90;;;;;;5047848;28;20033;-71
2023/10/14 08:45:22;;;;;;;5.07;1.25;;;12.80;99.90;;;;;;5029857;28;20041;-71
2023/10/14 08:47:52;;;;;;;10.77;1.15;;;12.80;99.90;;;;;;5029905;28;20040;-71
2023/10/14 08:50:24;;;;;;;5.78;1.27;;;12.80;99.90;;;;;;5048047;28;20041;-70
2023/10/14 08:52:53;;;;;;;7.82;1.23;;;12.80;99.90;;;;;;5029718;28;20389;-70
2023/10/14 08:55:19;;;;;;;11.70;1.35;;;12.80;99.90;;;;;;5047850;28;20041;-72
2023/10/14 08:57:46;;;;;;;7.55;0.65;;;12.70;99.90;;;;;;5029108;28;20036;-71
2023/10/14 09:00:20;;;;;;;8.35;1.13;;;12.60;99.90;;;;;;5047442;28;20033;-71
2023/10/14 09:02:53;;;;;;;8.25;1.05;;;12.60;99.90;;;;;;5047301;28;20036;-71
2023/10/14 09:05:20;;;;;;;3.85;0.82;;;12.60;99.90;;;;;;5029376;28;20045;-71
2023/10/14 09:07:48;;;;;;;10.00;1.35;;;12.70;99.90;;;;;;5027915;28;20044;-70
2023/10/14 09:10:18;;;;;;;8.40;1.13;;;12.80;99.90;;;;;;5025046;28;20040;-72
2023/10/14 09:12:53;;;;;;;12.30;1.65;;;13.00;99.90;;;;;;5023108;28;20033;-70
2023/10/14 09:15:21;;;;;;;11.38;1.48;;;13.40;99.90;;;;;;5050033;28;20091;-71
2023/10/14 09:17:46;;;;;;;7.70;0.93;;;13.70;99.90;;;;;;5044135;28;20040;-72
2023/10/14 09:20:30;;;;;;;5.15;1.23;;;14.00;99.90;;;;;;5028014;28;20416;-72
2023/10/14 09:23:16;;;;;;;8.45;2.08;;;14.20;99.90;;;;;;5047384;28;20136;-72
2023/10/14 09:25:43;;;;;;;15.80;1.77;;;14.30;99.90;;;;;;5032530;28;20033;-71
2023/10/14 09:28:10;;;;;;;8.90;1.55;;;14.30;99.90;;;;;;5050874;28;20064;-71
2023/10/14 09:30:37;;;;;;;8.40;0.77;;;14.50;99.90;;;;;;5047871;28;20033;-74
2023/10/14 09:33:03;;;;;;;6.95;1.45;;;14.60;99.90;;;;;;5023765;28;20651;-71
2023/10/14 09:35:30;;;;;;;7.22;0.98;;;14.70;99.90;;;;;;5043614;28;20124;-71
2023/10/14 09:37:56;;;;;;;7.57;1.10;;;14.70;99.90;;;;;;5028666;28;20040;-71
2023/10/14 09:40:24;;;;;;;5.38;0.90;;;14.80;99.90;;;;;;5047176;28;20133;-71
2023/10/14 09:42:52;;;;;;;14.05;1.25;;;14.80;99.90;;;;;;5028639;28;20079;-72
2023/10/14 09:45:20;;;;;;;6.38;1.05;;;14.90;99.90;;;;;;5047057;28;20045;-72
2023/10/14 09:47:47;;;;;;;6.88;0.88;;;15.00;99.90;;;;;;5028545;28;20041;-72
2023/10/14 09:50:14;;;;;;;13.15;2.42;;;15.20;99.90;;;;;;5028747;28;20036;-72
2023/10/14 09:52:43;;;;;;;9.45;1.55;;;15.30;99.90;;;;;;5028760;28;20037;-72
2023/10/14 09:55:13;;;;;;;8.35;0.88;;;15.20;99.90;;;;;;5047265;28;20041;-71
2023/10/14 09:57:43;;;;;;;11.52;1.52;;;15.00;99.90;;;;;;5028906;28;20025;-72
2023/10/14 10:00:10;;;;;;;9.07;1.33;;;14.80;99.90;;;;;;5047106;28;20481;-70
2023/10/14 10:02:39;;;;;;;9.43;1.13;;;14.40;99.90;;;;;;5047598;28;20033;-70
2023/10/14 10:05:07;;;;;;;8.55;1.52;;;14.20;99.90;;;;;;5019825;28;20519;-72
2023/10/14 10:08:00;;;;;;;8.18;1.60;;;14.20;99.90;;;;;;5046398;28;20067;-71
2023/10/14 10:10:30;;;;;;;15.25;2.05;;;14.30;99.90;;;;;;5028477;28;20501;-71
2023/10/14 10:12:57;;;;;;;8.02;1.10;;;14.40;99.90;;;;;;5026040;28;20148;-72
2023/10/14 10:15:24;;;;;;;10.25;1.40;;;14.50;99.90;;;;;;5027033;28;20037;-70
2023/10/14 10:18:02;;;;;;;7.57;0.82;;;14.70;99.90;;;;;;5027577;28;20059;-71
2023/10/14 10:20:30;;;;;;;3.53;0.77;;;14.80;99.90;;;;;;5024081;28;20047;-70
2023/10/14 10:22:58;;;;;;;4.80;0.77;;;15.00;99.90;;;;;;5040584;28;20048;-73
2023/10/14 10:25:50;;;;;;;6.68;1.55;;;15.20;99.90;;;;;;5045219;28;20424;-71
2023/10/14 10:28:27;;;;;;;10.23;0.73;;;15.40;99.90;;;;;;5025737;28;20116;-72
2023/10/14 10:30:55;;;;;;;15.70;1.50;;;15.50;99.90;;;;;;5026846;28;20041;-71
2023/10/14 10:33:24;;;;;;;3.97;0.70;;;15.50;99.90;;;;;;5026004;28;20039;-71
2023/10/14 10:36:03;;;;;;;10.82;1.75;;;15.50;99.90;;;;;;5044486;28;20657;-72
2023/10/14 10:38:36;;;;;;;6.60;1.20;;;15.50;99.90;;;;;;5023840;28;20037;-71
2023/10/14 10:41:26;;;;;;;5.43;1.45;;;15.50;99.90;;;;;;5044273;28;20036;-71
2023/10/14 10:43:57;;;;;;;;;;;15.50;99.90;;;;;;5044931;28;20048;-72
2023/10/14 10:46:53;;;;;;;10.10;1.35;;;15.50;99.90;;;;;;5026855;28;20386;-71
2023/10/14 10:49:56;;;;;;;10.32;1.65;;;15.60;99.90;;;;;;5025767;28;20041;-71
2023/10/14 10:52:24;;;;;;;6.30;0.98;;;15.80;99.90;;;;;;5039739;28;20070;-71
2023/10/14 10:54:51;;;;;;;9.95;1.63;;;15.70;99.90;;;;;;5026389;28;20041;-71
2023/10/14 10:57:17;;;;;;;6.57;1.23;;;15.60;99.90;;;;;;5044345;28;20036;-72
2023/10/14 10:59:43;;;;;;;11.02;1.10;;;15.60;99.90;;;;;;5026950;28;20049;-72
2023/10/14 11:02:10;;;;;;;7.25;1.08;;;15.40;99.90;;;;;;5045567;28;20048;-73
2023/10/14 11:04:36;;;;;;;10.43;1.17;;;15.40;99.90;;;;;;5044673;28;20069;-72
2023/10/14 11:07:03;;;;;;;6.88;1.00;;;15.40;99.90;;;;;;5044443;28;20041;-72
2023/10/14 11:09:36;;;;;;;2.58;0.55;;;15.40;99.90;;;;;;5027121;28;20636;-72
2023/10/14 11:12:03;;;;;;;10.27;0.70;;;15.30;99.90;;;;;;5044114;28;20035;-72
2023/10/14 11:14:29;;;;;;;7.00;0.60;;;15.30;99.90;;;;;;5027116;28;20043;-72
2023/10/14 11:16:58;;;;;;;3.90;0.82;;;15.20;99.90;;;;;;5026853;28;20489;-71
2023/10/14 11:19:30;;;;;;;6.85;1.15;;;15.10;99.90;;;;;;5022819;28;20037;-71
2023/10/14 11:21:58;;;;;;;3.85;0.88;;;15.20;99.90;;;;;;5022448;28;20041;-72
2023/10/14 11:24:25;;;;;;;8.38;1.13;;;15.30;99.90;;;;;;5027642;28;20029;-70
2023/10/14 11:26:50;;;;;;;4.40;0.60;;;15.50;99.90;;;;;;5030415;28;20068;-75
2023/10/14 11:29:16;;;;;;;9.98;1.50;;;15.70;99.90;;;;;;5027621;28;20402;-71
2023/10/14 11:31:45;;;;;;;4.40;0.75;;;15.60;99.90;;;;;;5044436;28;20091;-71
2023/10/14 11:34:11;;;;;;;8.50;1.35;;;15.40;99.90;;;;;;5027412;28;20715;-71
2023/10/14 11:36:41;;;;;;;5.45;0.50;;;15.10;99.90;;;;;;5027838;28;20056;-71
2023/10/14 11:39:12;;;;;;;5.00;1.25;;;14.90;99.90;;;;;;5027051;28;20029;-72
2023/10/14 11:41:39;;;;;;;7.53;1.33;;;14.70;99.90;;;;;;5028442;28;20069;-71
2023/10/14 11:44:05;;;;;;;7.22;0.98;;;14.50;99.90;;;;;;5045095;28;20611;-71
2023/10/14 11:46:34;;;;;;;1.45;0.60;;;14.50;99.90;;;;;;5027837;28;20044;-71
2023/10/14 11:48:59;;;;;;;3.15;0.68;;;14.40;99.90;;;;;;5027514;28;20041;-72
2023/10/14 11:51:29;;;;;;;2.90;0.60;;;14.50;99.90;;;;;;5046077;28;20060;-71
2023/10/14 11:53:56;;;;;;;7.65;1.67;;;14.60;99.90;;;;;;5027093;28;20105;-72
2023/10/14 11:56:22;;;;;;;2.83;0.80;;;14.60;99.90;;;;;;5026956;28;20551;-72
2023/10/14 11:58:49;;;;;;;7.63;0.70;;;14.70;99.90;;;;;;5026423;28;20045;-71
2023/10/14 12:01:15;;;;;;;4.68;0.73;;;14.70;99.90;;;;;;5044883;28;20766;-70
2023/10/14 12:03:40;;;;;;;6.25;0.68;;;14.70;99.90;;;;;;5044580;28;20032;-71
2023/10/14 12:06:11;;;;;;;11.55;1.20;;;14.80;99.90;;;;;;5026988;28;20116;-70
2023/10/14 12:08:38;;;;;;;6.13;1.02;;;14.90;99.90;;;;;;5045461;28;20055;-70
2023/10/14 12:11:08;;;;;;;9.73;0.73;;;14.90;99.90;;;;;;5025767;28;20067;-70
2023/10/14 12:13:34;;;;;;;2.90;0.50;;;15.10;99.90;;;;;;5045940;28;20421;-71
2023/10/14 12:16:05;;;;;;;4.90;0.60;;;15.00;99.90;;;;;;5029889;28;20572;-72
2023/10/14 12:18:37;;;;;;;;;;;15.00;99.90;;;;;;5049542;28;20647;-71
2023/10/14 12:21:05;;;;;;;10.18;1.00;;;15.00;99.90;;;;;;5029312;28;19920;-71
2023/10/14 12:23:31;;;;;;;6.63;0.70;;;15.10;99.90;;;;;;5030735;28;20083;-71
2023/10/14 12:25:58;;;;;;;2.53;0.50;;;15.20;99.90;;;;;;5047645;28;20044;-71
2023/10/14 12:28:30;;;;;;;4.45;1.40;;;15.30;99.90;;;;;;5030471;28;20032;-71
2023/10/14 12:31:02;;;;;;;7.38;0.85;;;15.40;99.90;;;;;;5029772;28;20713;-71
2023/10/14 12:33:32;;;;;;;2.47;0.70;;;15.30;99.90;;;;;;5030255;28;20083;-72
2023/10/14 12:35:59;;;;;;;4.40;0.50;;;15.10;99.90;;;;;;5047634;28;20734;-72
2023/10/14 12:38:27;;;;;;;6.18;0.60;;;15.10;99.90;;;;;;5031422;28;20033;-72
2023/10/14 12:40:53;;;;;;;1.95;0.60;;;15.00;99.90;;;;;;5049705;28;20041;-72
2023/10/14 12:43:32;;;;;;;3.95;0.60;;;15.10;99.90;;;;;;5047029;28;20056;-72
2023/10/14 12:48:45;;;;;;;2.92;0.60;;;15.20;99.90;;;;;;5047786;28;20029;-72
2023/10/14 12:51:17;;;;;;;6.07;0.55;;;15.30;99.90;;;;;;5029528;28;20717;-71
2023/10/14 12:53:47;;;;;;;6.18;1.38;;;15.30;99.90;;;;;;5029965;28;20033;-72
2023/10/14 12:56:14;;;;;;;3.95;0.70;;;15.30;99.90;;;;;;5029695;28;20391;-71
2023/10/14 12:58:45;;;;;;;4.13;0.57;;;15.20;99.90;;;;;;5046903;28;20474;-71
2023/10/14 13:01:17;;;;;;;5.72;0.70;;;15.10;99.90;;;;;;5047496;28;20091;-70
2023/10/14 13:03:52;;;;;;;5.43;1.10;;;15.10;99.90;;;;;;5044106;28;20044;-74
2023/10/14 13:06:22;;;;;;;10.02;0.90;;;15.00;99.90;;;;;;5038839;28;20084;-70
2023/10/14 13:09:08;;;;;;;4.57;1.05;;;15.00;99.90;;;;;;5025051;28;20478;-71
2023/10/14 13:11:34;;;;;;;3.90;0.60;;;15.00;99.90;;;;;;5027146;28;20075;-71
2023/10/14 13:14:00;;;;;;;4.47;0.73;;;15.00;99.90;;;;;;5027898;28;20052;-71
2023/10/14 13:16:26;;;;;;;2.40;0.30;;;15.00;99.90;;;;;;5028661;28;20397;-71
2023/10/14 13:18:56;;;;;;;3.92;1.05;;;15.10;99.90;;;;;;5046177;28;20044;-72
2023/10/14 13:21:31;;;;;;;3.35;0.38;;;15.00;99.90;;;;;;5046232;28;20639;-70
2023/10/14 13:23:57;;;;;;;4.43;0.98;;;14.90;99.90;;;;;;5022728;28;20071;-71
2023/10/14 13:26:23;;;;;;;4.53;1.02;;;14.90;99.90;;;;;;5028254;28;20082;-70
2023/10/14 13:28:52;;;;;;;6.20;0.98;;;14.90;99.90;;;;;;5047434;28;20377;-71
2023/10/14 13:31:20;;;;;;;1.98;0.32;;;14.90;99.90;;;;;;5029185;28;20033;-71
2023/10/14 13:33:49;;;;;;;2.92;0.30;;;14.60;99.90;;;;;;5045320;28;20040;-71